sensor_id;sensor_type;location;lat;lon;timestamp;temperature;humidity
29917;DHT22;16786;49.466;11.068;2022-10-31T00:00:59;12.80;99.90
29917;DHT22;16786;49.466;11.068;2022-10-31T00:03:26;12.70;99.90
29917;DHT22;16786;49.466;11.068;2022-10-31T00:05:54;12.70;99.90
29917;DHT22;16786;49.466;11.068;2022-10-31T00:08:21;12.70;99.90
29917;DHT22;16786;49.466;11.068;2022-10-31T00:10:49;12.60;99.90
29917;DHT22;16786;49.466;11.068;2022-10-31T00:13:17;12.60;99.90
29917;DHT22;16786;49.466;11.068;2022-10-31T00:15:44;12.60;99.90
29917;DHT22;16786;49.466;11.068;2022-10-31T00:18:12;12.60;99.90
29917;DHT22;16786;49.466;11.068;2022-10-31T00:20:41;12.50;99.90
29917;DHT22;16786;49.466;11.068;2022-10-31T00:23:09;12.50;99.90
29917;DHT22;16786;49.466;11.068;2022-10-31T00:25:38;12.50;99.90
29917;DHT22;16786;49.466;11.068;2022-10-31T00:28:07;12.40;99.90
29917;DHT22;16786;49.466;11.068;2022-10-31T00:30:36;12.40;99.90
29917;DHT22;16786;49.466;11.068;2022-10-31T00:33:03;12.40;99.90
29917;DHT22;16786;49.466;11.068;2022-10-31T00:35:32;12.30;99.90
29917;DHT22;16786;49.466;11.068;2022-10-31T00:37:59;12.30;99.90
29917;DHT22;16786;49.466;11.068;2022-10-31T00:40:27;12.30;99.90
29917;DHT22;16786;49.466;11.068;2022-10-31T00:42:54;12.30;99.90
29917;DHT22;16786;49.466;11.068;2022-10-31T00:45:22;12.30;99.90
29917;DHT22;16786;49.466;11.068;2022-10-31T00:47:50;12.30;99.90
29917;DHT22;16786;49.466;11.068;2022-10-31T00:50:17;12.30;99.90
29917;DHT22;16786;49.466;11.068;2022-10-31T00:52:45;12.30;99.90
29917;DHT22;16786;49.466;11.068;2022-10-31T00:55:12;12.20;99.90
29917;DHT22;16786;49.466;11.068;2022-10-31T00:57:40;12.20;99.90
29917;DHT22;16786;49.466;11.068;2022-10-31T01:00:08;12.30;99.90
29917;DHT22;16786;49.466;11.068;2022-10-31T01:02:35;12.30;99.90
29917;DHT22;16786;49.466;11.068;2022-10-31T01:05:03;12.30;99.90
29917;DHT22;16786;49.466;11.068;2022-10-31T01:07:31;12.30;99.90
29917;DHT22;16786;49.466;11.068;2022-10-31T01:09:58;12.20;99.90
29917;DHT22;16786;49.466;11.068;2022-10-31T01:12:27;12.20;99.90
29917;DHT22;16786;49.466;11.068;2022-10-31T01:14:54;12.20;99.90
29917;DHT22;16786;49.466;11.068;2022-10-31T01:17:21;12.20;99.90
29917;DHT22;16786;49.466;11.068;2022-10-31T01:19:49;12.20;99.90
29917;DHT22;16786;49.466;11.068;2022-10-31T01:22:17;12.20;99.90
29917;DHT22;16786;49.466;11.068;2022-10-31T01:24:45;12.20;99.90
29917;DHT22;16786;49.466;11.068;2022-10-31T01:27:12;12.20;99.90
29917;DHT22;16786;49.466;11.068;2022-10-31T01:29:39;12.20;99.90
29917;DHT22;16786;49.466;11.068;2022-10-31T01:32:07;12.20;99.90
29917;DHT22;16786;49.466;11.068;2022-10-31T01:34:34;12.10;99.90
29917;DHT22;16786;49.466;11.068;2022-10-31T01:37:01;12.10;99.90
29917;DHT22;16786;49.466;11.068;2022-10-31T01:39:29;12.10;99.90
29917;DHT22;16786;49.466;11.068;2022-10-31T01:41:56;12.10;99.90
29917;DHT22;16786;49.466;11.068;2022-10-31T01:47:14;12.00;99.90
29917;DHT22;16786;49.466;11.068;2022-10-31T01:49:52;12.00;99.90
29917;DHT22;16786;49.466;11.068;2022-10-31T01:52:47;12.00;99.90
29917;DHT22;16786;49.466;11.068;2022-10-31T01:58:02;11.90;99.90
29917;DHT22;16786;49.466;11.068;2022-10-31T02:00:31;11.90;99.90
29917;DHT22;16786;49.466;11.068;2022-10-31T02:02:59;11.90;99.90
29917;DHT22;16786;49.466;11.068;2022-10-31T02:05:29;11.90;99.90
29917;DHT22;16786;49.466;11.068;2022-10-31T02:08:07;11.80;99.90
29917;DHT22;16786;49.466;11.068;2022-10-31T02:10:36;11.80;99.90
29917;DHT22;16786;49.466;11.068;2022-10-31T02:13:06;11.70;99.90
29917;DHT22;16786;49.466;11.068;2022-10-31T02:15:43;11.70;99.90
29917;DHT22;16786;49.466;11.068;2022-10-31T02:18:12;11.60;99.90
29917;DHT22;16786;49.466;11.068;2022-10-31T02:26:53;11.50;99.90
29917;DHT22;16786;49.466;11.068;2022-10-31T02:32:25;11.50;99.90
29917;DHT22;16786;49.466;11.068;2022-10-31T02:40:44;11.30;99.90
29917;DHT22;16786;49.466;11.068;2022-10-31T02:51:59;11.30;99.90
29917;DHT22;16786;49.466;11.068;2022-10-31T02:54:28;11.30;99.90
29917;DHT22;16786;49.466;11.068;2022-10-31T02:57:05;11.30;99.90
29917;DHT22;16786;49.466;11.068;2022-10-31T02:59:36;11.30;99.90
29917;DHT22;16786;49.466;11.068;2022-10-31T03:08:00;11.30;99.90
29917;DHT22;16786;49.466;11.068;2022-10-31T03:10:43;11.30;99.90
29917;DHT22;16786;49.466;11.068;2022-10-31T03:13:35;11.30;99.90
29917;DHT22;16786;49.466;11.068;2022-10-31T03:18:58;11.30;99.90
29917;DHT22;16786;49.466;11.068;2022-10-31T03:24:06;11.30;99.90
29917;DHT22;16786;49.466;11.068;2022-10-31T03:26:41;11.20;99.90
29917;DHT22;16786;49.466;11.068;2022-10-31T03:29:12;11.20;99.90
29917;DHT22;16786;49.466;11.068;2022-10-31T03:31:51;11.20;99.90
29917;DHT22;16786;49.466;11.068;2022-10-31T03:34:22;11.20;99.90
29917;DHT22;16786;49.466;11.068;2022-10-31T03:36:51;11.20;99.90
29917;DHT22;16786;49.466;11.068;2022-10-31T03:39:22;11.20;99.90
29917;DHT22;16786;49.466;11.068;2022-10-31T03:41:56;11.20;99.90
29917;DHT22;16786;49.466;11.068;2022-10-31T03:44:26;11.20;99.90
29917;DHT22;16786;49.466;11.068;2022-10-31T03:47:01;11.10;99.90
29917;DHT22;16786;49.466;11.068;2022-10-31T03:49:30;11.10;99.90
29917;DHT22;16786;49.466;11.068;2022-10-31T03:55:16;11.10;99.90
29917;DHT22;16786;49.466;11.068;2022-10-31T03:58:02;11.00;99.90
29917;DHT22;16786;49.466;11.068;2022-10-31T04:00:32;10.90;99.90
29917;DHT22;16786;49.466;11.068;2022-10-31T04:03:15;10.90;99.90
29917;DHT22;16786;49.466;11.068;2022-10-31T04:05:47;10.90;99.90
29917;DHT22;16786;49.466;11.068;2022-10-31T04:08:23;10.80;99.90
29917;DHT22;16786;49.466;11.068;2022-10-31T04:10:54;10.80;99.90
29917;DHT22;16786;49.466;11.068;2022-10-31T04:13:27;10.70;99.90
29917;DHT22;16786;49.466;11.068;2022-10-31T04:16:01;10.70;99.90
29917;DHT22;16786;49.466;11.068;2022-10-31T04:18:28;10.70;99.90
29917;DHT22;16786;49.466;11.068;2022-10-31T04:21:01;10.60;99.90
29917;DHT22;16786;49.466;11.068;2022-10-31T04:23:30;10.60;99.90
29917;DHT22;16786;49.466;11.068;2022-10-31T04:25:59;10.60;99.90
29917;DHT22;16786;49.466;11.068;2022-10-31T04:28:26;10.50;99.90
29917;DHT22;16786;49.466;11.068;2022-10-31T04:30:54;10.50;99.90
29917;DHT22;16786;49.466;11.068;2022-10-31T04:33:22;10.50;99.90
29917;DHT22;16786;49.466;11.068;2022-10-31T04:35:50;10.50;99.90
29917;DHT22;16786;49.466;11.068;2022-10-31T04:38:17;10.50;99.90
29917;DHT22;16786;49.466;11.068;2022-10-31T04:40:45;10.50;99.90
29917;DHT22;16786;49.466;11.068;2022-10-31T04:43:31;10.50;99.90
29917;DHT22;16786;49.466;11.068;2022-10-31T04:46:00;10.50;99.90
29917;DHT22;16786;49.466;11.068;2022-10-31T04:48:27;10.40;99.90
29917;DHT22;16786;49.466;11.068;2022-10-31T04:51:02;10.40;99.90
29917;DHT22;16786;49.466;11.068;2022-10-31T04:53:29;10.40;99.90
29917;DHT22;16786;49.466;11.068;2022-10-31T04:56:16;10.40;99.90
29917;DHT22;16786;49.466;11.068;2022-10-31T04:58:46;10.40;99.90
29917;DHT22;16786;49.466;11.068;2022-10-31T05:01:13;10.40;99.90
29917;DHT22;16786;49.466;11.068;2022-10-31T05:03:41;10.40;99.90
29917;DHT22;16786;49.466;11.068;2022-10-31T05:06:08;10.40;99.90
29917;DHT22;16786;49.466;11.068;2022-10-31T05:08:40;10.40;99.90
29917;DHT22;16786;49.466;11.068;2022-10-31T05:11:08;10.40;99.90
29917;DHT22;16786;49.466;11.068;2022-10-31T05:13:36;10.40;99.90
29917;DHT22;16786;49.466;11.068;2022-10-31T05:16:07;10.40;99.90
29917;DHT22;16786;49.466;11.068;2022-10-31T05:19:00;10.50;99.90
29917;DHT22;16786;49.466;11.068;2022-10-31T05:22:06;10.50;99.90
29917;DHT22;16786;49.466;11.068;2022-10-31T05:24:34;10.50;99.90
29917;DHT22;16786;49.466;11.068;2022-10-31T05:27:03;10.50;99.90
29917;DHT22;16786;49.466;11.068;2022-10-31T05:29:30;10.50;99.90
29917;DHT22;16786;49.466;11.068;2022-10-31T05:32:02;10.60;99.90
29917;DHT22;16786;49.466;11.068;2022-10-31T05:35:11;10.60;99.90
29917;DHT22;16786;49.466;11.068;2022-10-31T05:38:12;10.50;99.90
29917;DHT22;16786;49.466;11.068;2022-10-31T05:40:39;10.50;99.90
29917;DHT22;16786;49.466;11.068;2022-10-31T05:43:07;10.50;99.90
29917;DHT22;16786;49.466;11.068;2022-10-31T05:45:35;10.40;99.90
29917;DHT22;16786;49.466;11.068;2022-10-31T05:48:07;10.40;99.90
29917;DHT22;16786;49.466;11.068;2022-10-31T05:50:53;10.40;99.90
29917;DHT22;16786;49.466;11.068;2022-10-31T05:53:22;10.40;99.90
29917;DHT22;16786;49.466;11.068;2022-10-31T05:55:49;10.40;99.90
29917;DHT22;16786;49.466;11.068;2022-10-31T05:58:19;10.40;99.90
29917;DHT22;16786;49.466;11.068;2022-10-31T06:00:58;10.40;99.90
29917;DHT22;16786;49.466;11.068;2022-10-31T06:03:26;10.40;99.90
29917;DHT22;16786;49.466;11.068;2022-10-31T06:05:57;10.40;99.90
29917;DHT22;16786;49.466;11.068;2022-10-31T06:08:29;10.40;99.90
29917;DHT22;16786;49.466;11.068;2022-10-31T06:11:00;10.40;99.90
29917;DHT22;16786;49.466;11.068;2022-10-31T06:13:50;10.50;99.90
29917;DHT22;16786;49.466;11.068;2022-10-31T06:16:23;10.50;99.90
29917;DHT22;16786;49.466;11.068;2022-10-31T06:18:51;10.50;99.90
29917;DHT22;16786;49.466;11.068;2022-10-31T06:21:18;10.60;99.90
29917;DHT22;16786;49.466;11.068;2022-10-31T06:23:48;10.60;99.90
29917;DHT22;16786;49.466;11.068;2022-10-31T06:26:41;10.70;99.90
29917;DHT22;16786;49.466;11.068;2022-10-31T06:29:08;10.70;99.90
29917;DHT22;16786;49.466;11.068;2022-10-31T06:31:54;10.80;99.90
29917;DHT22;16786;49.466;11.068;2022-10-31T06:34:21;10.80;99.90
29917;DHT22;16786;49.466;11.068;2022-10-31T06:36:48;10.80;99.90
29917;DHT22;16786;49.466;11.068;2022-10-31T06:39:19;10.80;99.90
29917;DHT22;16786;49.466;11.068;2022-10-31T06:41:47;10.90;99.90
29917;DHT22;16786;49.466;11.068;2022-10-31T06:44:18;10.90;99.90
29917;DHT22;16786;49.466;11.068;2022-10-31T06:46:55;10.90;99.90
29917;DHT22;16786;49.466;11.068;2022-10-31T06:49:31;11.00;99.90
29917;DHT22;16786;49.466;11.068;2022-10-31T06:52:01;11.00;99.90
29917;DHT22;16786;49.466;11.068;2022-10-31T06:54:29;11.00;99.90
29917;DHT22;16786;49.466;11.068;2022-10-31T06:56:56;11.10;99.90
29917;DHT22;16786;49.466;11.068;2022-10-31T06:59:23;11.10;99.90
29917;DHT22;16786;49.466;11.068;2022-10-31T07:02:10;11.20;99.90
29917;DHT22;16786;49.466;11.068;2022-10-31T07:04:39;11.30;99.90
29917;DHT22;16786;49.466;11.068;2022-10-31T07:07:07;11.30;99.90
29917;DHT22;16786;49.466;11.068;2022-10-31T07:09:37;11.40;99.90
29917;DHT22;16786;49.466;11.068;2022-10-31T07:12:05;11.50;99.90
29917;DHT22;16786;49.466;11.068;2022-10-31T07:14:36;11.50;99.90
29917;DHT22;16786;49.466;11.068;2022-10-31T07:17:04;11.60;99.90
29917;DHT22;16786;49.466;11.068;2022-10-31T07:19:36;11.70;99.90
29917;DHT22;16786;49.466;11.068;2022-10-31T07:22:03;11.80;99.90
29917;DHT22;16786;49.466;11.068;2022-10-31T07:24:31;11.80;99.90
29917;DHT22;16786;49.466;11.068;2022-10-31T07:27:42;11.90;99.90
29917;DHT22;16786;49.466;11.068;2022-10-31T07:30:12;11.90;99.90
29917;DHT22;16786;49.466;11.068;2022-10-31T07:32:44;12.10;99.90
29917;DHT22;16786;49.466;11.068;2022-10-31T07:35:21;12.20;99.90
29917;DHT22;16786;49.466;11.068;2022-10-31T07:38:07;12.20;99.90
29917;DHT22;16786;49.466;11.068;2022-10-31T07:40:34;12.40;99.90
29917;DHT22;16786;49.466;11.068;2022-10-31T07:43:02;12.50;99.90
29917;DHT22;16786;49.466;11.068;2022-10-31T07:46:02;12.50;99.90
29917;DHT22;16786;49.466;11.068;2022-10-31T07:48:47;12.50;99.90
29917;DHT22;16786;49.466;11.068;2022-10-31T07:51:33;12.60;99.90
29917;DHT22;16786;49.466;11.068;2022-10-31T07:54:32;12.70;99.90
29917;DHT22;16786;49.466;11.068;2022-10-31T07:57:00;12.80;99.90
29917;DHT22;16786;49.466;11.068;2022-10-31T07:59:28;12.80;99.90
29917;DHT22;16786;49.466;11.068;2022-10-31T08:01:56;12.90;99.90
29917;DHT22;16786;49.466;11.068;2022-10-31T08:04:41;12.90;99.90
29917;DHT22;16786;49.466;11.068;2022-10-31T08:07:28;13.00;99.90
29917;DHT22;16786;49.466;11.068;2022-10-31T08:10:03;13.10;99.90
29917;DHT22;16786;49.466;11.068;2022-10-31T08:12:31;13.20;99.90
29917;DHT22;16786;49.466;11.068;2022-10-31T08:14:58;13.30;99.90
29917;DHT22;16786;49.466;11.068;2022-10-31T08:17:25;13.30;99.90
29917;DHT22;16786;49.466;11.068;2022-10-31T08:19:58;13.40;99.90
29917;DHT22;16786;49.466;11.068;2022-10-31T08:22:31;13.40;99.90
29917;DHT22;16786;49.466;11.068;2022-10-31T08:24:59;13.50;99.90
29917;DHT22;16786;49.466;11.068;2022-10-31T08:27:27;13.60;99.90
29917;DHT22;16786;49.466;11.068;2022-10-31T08:29:57;13.60;99.90
29917;DHT22;16786;49.466;11.068;2022-10-31T08:32:25;13.70;99.90
29917;DHT22;16786;49.466;11.068;2022-10-31T08:34:55;13.70;99.90
29917;DHT22;16786;49.466;11.068;2022-10-31T08:37:41;13.90;99.90
29917;DHT22;16786;49.466;11.068;2022-10-31T08:40:10;14.10;99.90
29917;DHT22;16786;49.466;11.068;2022-10-31T08:42:39;14.20;99.90
29917;DHT22;16786;49.466;11.068;2022-10-31T08:45:07;14.40;99.90
29917;DHT22;16786;49.466;11.068;2022-10-31T08:47:37;14.30;99.90
29917;DHT22;16786;49.466;11.068;2022-10-31T08:50:04;14.50;99.90
29917;DHT22;16786;49.466;11.068;2022-10-31T08:52:32;14.50;99.90
29917;DHT22;16786;49.466;11.068;2022-10-31T08:55:19;14.70;99.90
29917;DHT22;16786;49.466;11.068;2022-10-31T08:57:47;14.90;99.90
29917;DHT22;16786;49.466;11.068;2022-10-31T09:00:14;15.10;99.90
29917;DHT22;16786;49.466;11.068;2022-10-31T09:02:56;15.10;99.90
29917;DHT22;16786;49.466;11.068;2022-10-31T09:05:24;15.10;99.90
29917;DHT22;16786;49.466;11.068;2022-10-31T09:07:55;15.40;99.90
29917;DHT22;16786;49.466;11.068;2022-10-31T09:10:26;15.60;99.90
29917;DHT22;16786;49.466;11.068;2022-10-31T09:13:05;15.90;99.90
29917;DHT22;16786;49.466;11.068;2022-10-31T09:15:58;15.90;99.90
29917;DHT22;16786;49.466;11.068;2022-10-31T09:18:27;16.00;99.90
29917;DHT22;16786;49.466;11.068;2022-10-31T09:20:59;16.20;99.90
29917;DHT22;16786;49.466;11.068;2022-10-31T09:23:29;16.40;99.90
29917;DHT22;16786;49.466;11.068;2022-10-31T09:26:00;16.60;99.90
29917;DHT22;16786;49.466;11.068;2022-10-31T09:28:30;16.80;99.90
29917;DHT22;16786;49.466;11.068;2022-10-31T09:31:17;17.00;99.90
29917;DHT22;16786;49.466;11.068;2022-10-31T09:33:58;16.80;99.90
29917;DHT22;16786;49.466;11.068;2022-10-31T09:36:38;17.00;99.90
29917;DHT22;16786;49.466;11.068;2022-10-31T09:39:12;17.10;99.90
29917;DHT22;16786;49.466;11.068;2022-10-31T09:44:33;17.70;99.90
29917;DHT22;16786;49.466;11.068;2022-10-31T09:50:23;17.80;99.90
29917;DHT22;16786;49.466;11.068;2022-10-31T09:53:22;18.10;99.90
29917;DHT22;16786;49.466;11.068;2022-10-31T09:55:51;18.40;99.90
29917;DHT22;16786;49.466;11.068;2022-10-31T09:58:30;18.70;99.90
29917;DHT22;16786;49.466;11.068;2022-10-31T10:01:03;19.00;99.90
29917;DHT22;16786;49.466;11.068;2022-10-31T10:03:50;19.30;99.90
29917;DHT22;16786;49.466;11.068;2022-10-31T10:06:41;19.50;99.90
29917;DHT22;16786;49.466;11.068;2022-10-31T10:09:31;19.80;99.90
29917;DHT22;16786;49.466;11.068;2022-10-31T10:21:16;20.90;99.90
29917;DHT22;16786;49.466;11.068;2022-10-31T10:23:55;20.90;99.90
29917;DHT22;16786;49.466;11.068;2022-10-31T10:26:46;21.30;99.90
29917;DHT22;16786;49.466;11.068;2022-10-31T10:32:21;21.80;99.90
29917;DHT22;16786;49.466;11.068;2022-10-31T10:34:52;22.70;99.90
29917;DHT22;16786;49.466;11.068;2022-10-31T10:37:25;23.90;99.90
29917;DHT22;16786;49.466;11.068;2022-10-31T10:40:11;25.00;99.90
29917;DHT22;16786;49.466;11.068;2022-10-31T10:42:40;24.80;99.90
29917;DHT22;16786;49.466;11.068;2022-10-31T10:45:26;25.70;99.90
29917;DHT22;16786;49.466;11.068;2022-10-31T10:48:22;25.80;99.90
29917;DHT22;16786;49.466;11.068;2022-10-31T10:50:52;26.10;99.90
29917;DHT22;16786;49.466;11.068;2022-10-31T10:59:51;25.20;99.90
29917;DHT22;16786;49.466;11.068;2022-10-31T11:02:24;24.80;99.90
29917;DHT22;16786;49.466;11.068;2022-10-31T11:04:56;24.50;99.90
29917;DHT22;16786;49.466;11.068;2022-10-31T11:07:24;24.00;99.90
29917;DHT22;16786;49.466;11.068;2022-10-31T11:10:01;23.80;99.90
29917;DHT22;16786;49.466;11.068;2022-10-31T11:12:31;23.60;99.90
29917;DHT22;16786;49.466;11.068;2022-10-31T11:15:07;23.80;99.90
29917;DHT22;16786;49.466;11.068;2022-10-31T11:17:40;24.10;99.90
29917;DHT22;16786;49.466;11.068;2022-10-31T11:22:47;23.90;99.90
29917;DHT22;16786;49.466;11.068;2022-10-31T11:25:25;24.10;99.90
29917;DHT22;16786;49.466;11.068;2022-10-31T11:28:04;24.30;99.90
29917;DHT22;16786;49.466;11.068;2022-10-31T11:30:42;23.90;99.90
29917;DHT22;16786;49.466;11.068;2022-10-31T11:33:29;23.70;99.90
29917;DHT22;16786;49.466;11.068;2022-10-31T11:35:58;24.00;99.90
29917;DHT22;16786;49.466;11.068;2022-10-31T11:38:35;24.30;99.90
29917;DHT22;16786;49.466;11.068;2022-10-31T11:41:19;24.10;99.90
29917;DHT22;16786;49.466;11.068;2022-10-31T11:43:54;24.30;99.90
29917;DHT22;16786;49.466;11.068;2022-10-31T11:48:54;24.30;99.90
29917;DHT22;16786;49.466;11.068;2022-10-31T11:51:25;24.10;99.90
29917;DHT22;16786;49.466;11.068;2022-10-31T11:53:57;24.30;99.90
29917;DHT22;16786;49.466;11.068;2022-10-31T11:56:39;24.40;99.90
29917;DHT22;16786;49.466;11.068;2022-10-31T11:59:37;24.70;99.90
29917;DHT22;16786;49.466;11.068;2022-10-31T12:02:18;24.70;99.90
29917;DHT22;16786;49.466;11.068;2022-10-31T12:07:27;24.90;99.90
29917;DHT22;16786;49.466;11.068;2022-10-31T12:09:54;25.30;99.90
29917;DHT22;16786;49.466;11.068;2022-10-31T12:26:26;26.60;99.90
29917;DHT22;16786;49.466;11.068;2022-10-31T12:34:54;26.90;99.90
29917;DHT22;16786;49.466;11.068;2022-10-31T12:40:34;27.30;99.90
29917;DHT22;16786;49.466;11.068;2022-10-31T12:43:37;27.20;99.90
29917;DHT22;16786;49.466;11.068;2022-10-31T12:49:52;26.60;99.90
29917;DHT22;16786;49.466;11.068;2022-10-31T12:57:39;26.40;99.90
29917;DHT22;16786;49.466;11.068;2022-10-31T13:00:16;26.50;99.90
29917;DHT22;16786;49.466;11.068;2022-10-31T13:03:30;26.60;99.90
29917;DHT22;16786;49.466;11.068;2022-10-31T13:05:40;26.20;99.90
29917;DHT22;16786;49.466;11.068;2022-10-31T13:08:18;25.80;99.90
29917;DHT22;16786;49.466;11.068;2022-10-31T13:11:02;25.40;99.90
29917;DHT22;16786;49.466;11.068;2022-10-31T13:13:45;25.10;99.90
29917;DHT22;16786;49.466;11.068;2022-10-31T13:16:26;24.70;99.90
29917;DHT22;16786;49.466;11.068;2022-10-31T13:19:19;23.80;99.90
29917;DHT22;16786;49.466;11.068;2022-10-31T13:30:19;22.70;99.90
29917;DHT22;16786;49.466;11.068;2022-10-31T13:33:06;22.30;99.90
29917;DHT22;16786;49.466;11.068;2022-10-31T13:36:42;22.00;99.90
29917;DHT22;16786;49.466;11.068;2022-10-31T13:45:24;21.60;99.90
29917;DHT22;16786;49.466;11.068;2022-10-31T13:50:54;22.00;99.90
29917;DHT22;16786;49.466;11.068;2022-10-31T13:53:35;22.60;99.90
29917;DHT22;16786;49.466;11.068;2022-10-31T13:56:35;23.50;99.90
29917;DHT22;16786;49.466;11.068;2022-10-31T13:59:16;24.20;99.90
29917;DHT22;16786;49.466;11.068;2022-10-31T14:01:55;24.70;99.90
29917;DHT22;16786;49.466;11.068;2022-10-31T14:04:26;25.00;99.90
29917;DHT22;16786;49.466;11.068;2022-10-31T14:07:08;24.80;99.90
29917;DHT22;16786;49.466;11.068;2022-10-31T14:10:01;24.50;99.90
29917;DHT22;16786;49.466;11.068;2022-10-31T14:12:44;24.20;99.90
29917;DHT22;16786;49.466;11.068;2022-10-31T14:15:19;23.70;99.90
29917;DHT22;16786;49.466;11.068;2022-10-31T14:18:00;23.30;99.90
29917;DHT22;16786;49.466;11.068;2022-10-31T14:20:44;22.90;99.90
29917;DHT22;16786;49.466;11.068;2022-10-31T14:26:29;22.00;99.90
29917;DHT22;16786;49.466;11.068;2022-10-31T14:29:20;21.70;99.90
29917;DHT22;16786;49.466;11.068;2022-10-31T14:32:24;21.20;99.90
29917;DHT22;16786;49.466;11.068;2022-10-31T14:34:57;20.90;99.90
29917;DHT22;16786;49.466;11.068;2022-10-31T14:45:25;20.00;99.90
29917;DHT22;16786;49.466;11.068;2022-10-31T14:50:50;19.50;99.90
29917;DHT22;16786;49.466;11.068;2022-10-31T14:54:11;19.30;99.90
29917;DHT22;16786;49.466;11.068;2022-10-31T14:56:11;19.20;99.90
29917;DHT22;16786;49.466;11.068;2022-10-31T14:58:42;19.10;99.90
29917;DHT22;16786;49.466;11.068;2022-10-31T15:04:23;18.80;99.90
29917;DHT22;16786;49.466;11.068;2022-10-31T15:07:18;18.70;99.90
29917;DHT22;16786;49.466;11.068;2022-10-31T15:12:30;18.50;99.90
29917;DHT22;16786;49.466;11.068;2022-10-31T15:15:10;18.40;99.90
29917;DHT22;16786;49.466;11.068;2022-10-31T15:17:46;18.30;99.90
29917;DHT22;16786;49.466;11.068;2022-10-31T15:20:21;18.30;99.90
29917;DHT22;16786;49.466;11.068;2022-10-31T15:22:50;18.20;99.90
29917;DHT22;16786;49.466;11.068;2022-10-31T15:25:24;18.20;99.90
29917;DHT22;16786;49.466;11.068;2022-10-31T15:27:53;18.40;99.90
29917;DHT22;16786;49.466;11.068;2022-10-31T15:30:26;19.20;99.90
29917;DHT22;16786;49.466;11.068;2022-10-31T15:32:54;20.10;99.90
29917;DHT22;16786;49.466;11.068;2022-10-31T15:35:27;20.60;99.90
29917;DHT22;16786;49.466;11.068;2022-10-31T15:37:57;20.60;99.90
29917;DHT22;16786;49.466;11.068;2022-10-31T15:40:29;20.40;99.90
29917;DHT22;16786;49.466;11.068;2022-10-31T15:43:02;20.00;99.90
29917;DHT22;16786;49.466;11.068;2022-10-31T15:45:31;19.60;99.90
29917;DHT22;16786;49.466;11.068;2022-10-31T15:48:18;19.20;99.90
29917;DHT22;16786;49.466;11.068;2022-10-31T15:50:56;18.80;99.90
29917;DHT22;16786;49.466;11.068;2022-10-31T15:53:48;18.50;99.90
29917;DHT22;16786;49.466;11.068;2022-10-31T15:56:20;18.30;99.90
29917;DHT22;16786;49.466;11.068;2022-10-31T15:58:51;18.00;99.90
29917;DHT22;16786;49.466;11.068;2022-10-31T16:04:05;17.70;99.90
29917;DHT22;16786;49.466;11.068;2022-10-31T16:07:01;17.50;99.90
29917;DHT22;16786;49.466;11.068;2022-10-31T16:09:29;17.30;99.90
29917;DHT22;16786;49.466;11.068;2022-10-31T16:11:57;17.20;99.90
29917;DHT22;16786;49.466;11.068;2022-10-31T16:14:29;17.10;99.90
29917;DHT22;16786;49.466;11.068;2022-10-31T16:16:59;17.00;99.90
29917;DHT22;16786;49.466;11.068;2022-10-31T16:19:36;16.90;99.90
29917;DHT22;16786;49.466;11.068;2022-10-31T16:22:08;16.70;99.90
29917;DHT22;16786;49.466;11.068;2022-10-31T16:27:31;16.50;99.90
29917;DHT22;16786;49.466;11.068;2022-10-31T16:30:00;16.50;99.90
29917;DHT22;16786;49.466;11.068;2022-10-31T16:32:55;16.40;99.90
29917;DHT22;16786;49.466;11.068;2022-10-31T16:35:38;16.20;99.90
29917;DHT22;16786;49.466;11.068;2022-10-31T16:38:07;16.10;99.90
29917;DHT22;16786;49.466;11.068;2022-10-31T16:40:38;16.10;99.90
29917;DHT22;16786;49.466;11.068;2022-10-31T16:43:10;16.10;99.90
29917;DHT22;16786;49.466;11.068;2022-10-31T16:45:44;16.00;99.90
29917;DHT22;16786;49.466;11.068;2022-10-31T16:48:14;15.80;99.90
29917;DHT22;16786;49.466;11.068;2022-10-31T16:50:43;15.70;99.90
29917;DHT22;16786;49.466;11.068;2022-10-31T16:53:11;15.60;99.90
29917;DHT22;16786;49.466;11.068;2022-10-31T16:55:55;15.50;99.90
29917;DHT22;16786;49.466;11.068;2022-10-31T16:58:27;15.40;99.90
29917;DHT22;16786;49.466;11.068;2022-10-31T17:00:57;15.30;99.90
29917;DHT22;16786;49.466;11.068;2022-10-31T17:03:25;15.20;99.90
29917;DHT22;16786;49.466;11.068;2022-10-31T17:05:52;15.10;99.90
29917;DHT22;16786;49.466;11.068;2022-10-31T17:08:22;15.10;99.90
29917;DHT22;16786;49.466;11.068;2022-10-31T17:10:53;15.00;99.90
29917;DHT22;16786;49.466;11.068;2022-10-31T17:13:27;15.00;99.90
29917;DHT22;16786;49.466;11.068;2022-10-31T17:15:58;15.00;99.90
29917;DHT22;16786;49.466;11.068;2022-10-31T17:18:27;14.90;99.90
29917;DHT22;16786;49.466;11.068;2022-10-31T17:20:58;14.90;99.90
29917;DHT22;16786;49.466;11.068;2022-10-31T17:23:27;14.90;99.90
29917;DHT22;16786;49.466;11.068;2022-10-31T17:25:55;14.90;99.90
29917;DHT22;16786;49.466;11.068;2022-10-31T17:28:23;14.90;99.90
29917;DHT22;16786;49.466;11.068;2022-10-31T17:30:56;14.80;99.90
29917;DHT22;16786;49.466;11.068;2022-10-31T17:33:25;14.80;99.90
29917;DHT22;16786;49.466;11.068;2022-10-31T17:35:53;14.90;99.90
29917;DHT22;16786;49.466;11.068;2022-10-31T17:38:20;14.80;99.90
29917;DHT22;16786;49.466;11.068;2022-10-31T17:40:48;14.80;99.90
29917;DHT22;16786;49.466;11.068;2022-10-31T17:43:15;14.80;99.90
29917;DHT22;16786;49.466;11.068;2022-10-31T17:45:42;14.70;99.90
29917;DHT22;16786;49.466;11.068;2022-10-31T17:48:10;14.60;99.90
29917;DHT22;16786;49.466;11.068;2022-10-31T17:50:38;14.60;99.90
29917;DHT22;16786;49.466;11.068;2022-10-31T17:53:06;14.50;99.90
29917;DHT22;16786;49.466;11.068;2022-10-31T17:55:33;14.50;99.90
29917;DHT22;16786;49.466;11.068;2022-10-31T17:58:04;14.50;99.90
29917;DHT22;16786;49.466;11.068;2022-10-31T18:00:32;14.40;99.90
29917;DHT22;16786;49.466;11.068;2022-10-31T18:03:01;14.30;99.90
29917;DHT22;16786;49.466;11.068;2022-10-31T18:05:30;14.30;99.90
29917;DHT22;16786;49.466;11.068;2022-10-31T18:07:57;14.30;99.90
29917;DHT22;16786;49.466;11.068;2022-10-31T18:10:30;14.30;99.90
29917;DHT22;16786;49.466;11.068;2022-10-31T18:12:58;14.20;99.90
29917;DHT22;16786;49.466;11.068;2022-10-31T18:15:26;14.20;99.90
29917;DHT22;16786;49.466;11.068;2022-10-31T18:17:53;14.10;99.90
29917;DHT22;16786;49.466;11.068;2022-10-31T18:20:20;14.00;99.90
29917;DHT22;16786;49.466;11.068;2022-10-31T18:22:47;14.00;99.90
29917;DHT22;16786;49.466;11.068;2022-10-31T18:25:15;14.00;99.90
29917;DHT22;16786;49.466;11.068;2022-10-31T18:27:42;14.00;99.90